sensor_id;sensor_type;location;lat;lon;timestamp;P1;durP1;ratioP1;P2;durP2;ratioP2
24663;SDS011;12791;50.992;13.788;2022-08-19T00:01:37;12.40;;;11.40;;
24663;SDS011;12791;50.992;13.788;2022-08-19T00:04:06;13.98;;;12.77;;
24663;SDS011;12791;50.992;13.788;2022-08-19T00:06:35;12.80;;;11.48;;
24663;SDS011;12791;50.992;13.788;2022-08-19T00:09:03;13.18;;;12.10;;
24663;SDS011;12791;50.992;13.788;2022-08-19T00:11:32;11.60;;;10.70;;
24663;SDS011;12791;50.992;13.788;2022-08-19T00:14:01;13.13;;;12.02;;
24663;SDS011;12791;50.992;13.788;2022-08-19T00:16:28;15.27;;;13.98;;
24663;SDS011;12791;50.992;13.788;2022-08-19T00:18:56;15.88;;;14.35;;
24663;SDS011;12791;50.992;13.788;2022-08-19T00:21:23;14.93;;;13.73;;
24663;SDS011;12791;50.992;13.788;2022-08-19T00:23:51;16.08;;;14.45;;
24663;SDS011;12791;50.992;13.788;2022-08-19T00:26:18;15.02;;;13.63;;
24663;SDS011;12791;50.992;13.788;2022-08-19T00:28:46;13.10;;;11.85;;
24663;SDS011;12791;50.992;13.788;2022-08-19T00:31:13;13.05;;;12.02;;
24663;SDS011;12791;50.992;13.788;2022-08-19T00:33:41;13.93;;;12.73;;
24663;SDS011;12791;50.992;13.788;2022-08-19T00:36:08;15.93;;;14.65;;
24663;SDS011;12791;50.992;13.788;2022-08-19T00:38:36;18.38;;;16.58;;
24663;SDS011;12791;50.992;13.788;2022-08-19T00:41:08;17.60;;;15.88;;
24663;SDS011;12791;50.992;13.788;2022-08-19T00:43:35;15.65;;;14.35;;
24663;SDS011;12791;50.992;13.788;2022-08-19T00:46:05;15.82;;;14.27;;
24663;SDS011;12791;50.992;13.788;2022-08-19T00:48:31;14.30;;;13.13;;
24663;SDS011;12791;50.992;13.788;2022-08-19T00:51:01;15.50;;;14.13;;
24663;SDS011;12791;50.992;13.788;2022-08-19T00:53:29;14.32;;;13.02;;
24663;SDS011;12791;50.992;13.788;2022-08-19T00:55:59;14.80;;;13.50;;
24663;SDS011;12791;50.992;13.788;2022-08-19T00:58:28;18.52;;;16.83;;
24663;SDS011;12791;50.992;13.788;2022-08-19T01:00:56;17.35;;;15.73;;
24663;SDS011;12791;50.992;13.788;2022-08-19T01:03:24;18.40;;;16.70;;
24663;SDS011;12791;50.992;13.788;2022-08-19T01:05:51;16.65;;;15.13;;
24663;SDS011;12791;50.992;13.788;2022-08-19T01:08:20;17.48;;;15.98;;
24663;SDS011;12791;50.992;13.788;2022-08-19T01:10:47;16.73;;;15.23;;
24663;SDS011;12791;50.992;13.788;2022-08-19T01:13:16;18.77;;;17.10;;
24663;SDS011;12791;50.992;13.788;2022-08-19T01:15:45;18.75;;;17.02;;
24663;SDS011;12791;50.992;13.788;2022-08-19T01:18:15;18.27;;;16.67;;
24663;SDS011;12791;50.992;13.788;2022-08-19T01:20:45;19.08;;;17.27;;
24663;SDS011;12791;50.992;13.788;2022-08-19T01:23:14;17.17;;;15.75;;
24663;SDS011;12791;50.992;13.788;2022-08-19T01:25:42;17.50;;;15.80;;
24663;SDS011;12791;50.992;13.788;2022-08-19T01:28:17;17.13;;;15.70;;
24663;SDS011;12791;50.992;13.788;2022-08-19T01:30:45;17.02;;;15.60;;
24663;SDS011;12791;50.992;13.788;2022-08-19T01:33:12;18.65;;;16.88;;
24663;SDS011;12791;50.992;13.788;2022-08-19T01:35:39;17.63;;;16.02;;
24663;SDS011;12791;50.992;13.788;2022-08-19T01:38:09;18.45;;;16.83;;
24663;SDS011;12791;50.992;13.788;2022-08-19T01:40:46;17.70;;;16.13;;
24663;SDS011;12791;50.992;13.788;2022-08-19T01:43:12;16.33;;;14.93;;
24663;SDS011;12791;50.992;13.788;2022-08-19T01:45:39;19.30;;;17.50;;
24663;SDS011;12791;50.992;13.788;2022-08-19T01:48:06;19.35;;;17.65;;
24663;SDS011;12791;50.992;13.788;2022-08-19T01:50:34;17.88;;;16.27;;
24663;SDS011;12791;50.992;13.788;2022-08-19T01:53:02;18.30;;;16.50;;
24663;SDS011;12791;50.992;13.788;2022-08-19T01:55:31;15.52;;;14.18;;
24663;SDS011;12791;50.992;13.788;2022-08-19T01:57:59;18.88;;;17.17;;
24663;SDS011;12791;50.992;13.788;2022-08-19T02:00:29;16.95;;;15.55;;
24663;SDS011;12791;50.992;13.788;2022-08-19T02:02:57;16.63;;;15.23;;
24663;SDS011;12791;50.992;13.788;2022-08-19T02:05:24;20.42;;;18.48;;
24663;SDS011;12791;50.992;13.788;2022-08-19T02:07:50;18.20;;;16.63;;
24663;SDS011;12791;50.992;13.788;2022-08-19T02:10:19;16.73;;;15.23;;
24663;SDS011;12791;50.992;13.788;2022-08-19T02:12:47;16.50;;;15.00;;
24663;SDS011;12791;50.992;13.788;2022-08-19T02:15:17;19.48;;;17.77;;
24663;SDS011;12791;50.992;13.788;2022-08-19T02:17:45;18.90;;;17.20;;
24663;SDS011;12791;50.992;13.788;2022-08-19T02:20:12;17.92;;;16.33;;
24663;SDS011;12791;50.992;13.788;2022-08-19T02:22:39;16.52;;;14.95;;
24663;SDS011;12791;50.992;13.788;2022-08-19T02:25:07;17.60;;;15.93;;
24663;SDS011;12791;50.992;13.788;2022-08-19T02:27:35;17.00;;;15.43;;
24663;SDS011;12791;50.992;13.788;2022-08-19T02:30:03;18.00;;;16.50;;
24663;SDS011;12791;50.992;13.788;2022-08-19T02:32:32;17.50;;;15.98;;
24663;SDS011;12791;50.992;13.788;2022-08-19T02:34:59;18.92;;;17.13;;
24663;SDS011;12791;50.992;13.788;2022-08-19T02:37:25;19.15;;;17.42;;
24663;SDS011;12791;50.992;13.788;2022-08-19T02:40:10;20.73;;;18.77;;
24663;SDS011;12791;50.992;13.788;2022-08-19T02:42:37;19.50;;;17.52;;
24663;SDS011;12791;50.992;13.788;2022-08-19T02:45:05;20.50;;;18.40;;
24663;SDS011;12791;50.992;13.788;2022-08-19T02:47:34;18.40;;;16.90;;
24663;SDS011;12791;50.992;13.788;2022-08-19T02:50:00;18.17;;;16.67;;
24663;SDS011;12791;50.992;13.788;2022-08-19T02:52:28;18.33;;;16.00;;
24663;SDS011;12791;50.992;13.788;2022-08-19T02:54:55;15.38;;;14.07;;
24663;SDS011;12791;50.992;13.788;2022-08-19T02:57:22;15.98;;;14.57;;
24663;SDS011;12791;50.992;13.788;2022-08-19T02:59:49;18.85;;;17.15;;
24663;SDS011;12791;50.992;13.788;2022-08-19T03:02:15;20.13;;;18.33;;
24663;SDS011;12791;50.992;13.788;2022-08-19T03:04:43;16.92;;;15.55;;
24663;SDS011;12791;50.992;13.788;2022-08-19T03:07:12;16.83;;;15.32;;
24663;SDS011;12791;50.992;13.788;2022-08-19T03:09:39;17.27;;;15.82;;
24663;SDS011;12791;50.992;13.788;2022-08-19T03:12:07;17.48;;;15.98;;
24663;SDS011;12791;50.992;13.788;2022-08-19T03:14:35;18.33;;;16.80;;
24663;SDS011;12791;50.992;13.788;2022-08-19T03:17:03;18.75;;;17.05;;
24663;SDS011;12791;50.992;13.788;2022-08-19T03:19:30;17.52;;;15.93;;
24663;SDS011;12791;50.992;13.788;2022-08-19T03:21:58;17.17;;;15.68;;
24663;SDS011;12791;50.992;13.788;2022-08-19T03:24:25;17.23;;;15.65;;
24663;SDS011;12791;50.992;13.788;2022-08-19T03:26:52;18.17;;;16.60;;
24663;SDS011;12791;50.992;13.788;2022-08-19T03:29:22;17.33;;;15.85;;
24663;SDS011;12791;50.992;13.788;2022-08-19T03:31:50;21.02;;;19.15;;
24663;SDS011;12791;50.992;13.788;2022-08-19T03:34:18;18.85;;;17.17;;
24663;SDS011;12791;50.992;13.788;2022-08-19T03:36:46;17.77;;;16.17;;
24663;SDS011;12791;50.992;13.788;2022-08-19T03:39:15;18.05;;;16.45;;
24663;SDS011;12791;50.992;13.788;2022-08-19T03:41:43;19.88;;;17.95;;
24663;SDS011;12791;50.992;13.788;2022-08-19T03:44:11;20.58;;;18.77;;
24663;SDS011;12791;50.992;13.788;2022-08-19T03:46:38;21.08;;;19.27;;
24663;SDS011;12791;50.992;13.788;2022-08-19T03:49:05;19.42;;;17.63;;
24663;SDS011;12791;50.992;13.788;2022-08-19T03:51:32;18.80;;;17.27;;
24663;SDS011;12791;50.992;13.788;2022-08-19T03:54:03;18.80;;;17.20;;
24663;SDS011;12791;50.992;13.788;2022-08-19T03:56:34;19.00;;;17.30;;
24663;SDS011;12791;50.992;13.788;2022-08-19T03:59:02;18.33;;;16.65;;
24663;SDS011;12791;50.992;13.788;2022-08-19T04:01:30;22.38;;;20.15;;
24663;SDS011;12791;50.992;13.788;2022-08-19T04:03:57;20.10;;;18.30;;
24663;SDS011;12791;50.992;13.788;2022-08-19T04:06:26;19.75;;;17.92;;
24663;SDS011;12791;50.992;13.788;2022-08-19T04:08:55;18.55;;;16.85;;
24663;SDS011;12791;50.992;13.788;2022-08-19T04:11:23;17.33;;;15.77;;
24663;SDS011;12791;50.992;13.788;2022-08-19T04:13:54;18.90;;;17.15;;
24663;SDS011;12791;50.992;13.788;2022-08-19T04:16:22;19.70;;;17.90;;
24663;SDS011;12791;50.992;13.788;2022-08-19T04:18:53;20.75;;;18.90;;
24663;SDS011;12791;50.992;13.788;2022-08-19T04:21:21;19.48;;;17.65;;
24663;SDS011;12791;50.992;13.788;2022-08-19T04:23:50;20.70;;;18.80;;
24663;SDS011;12791;50.992;13.788;2022-08-19T04:26:18;19.27;;;17.58;;
24663;SDS011;12791;50.992;13.788;2022-08-19T04:28:47;20.02;;;18.33;;
24663;SDS011;12791;50.992;13.788;2022-08-19T04:31:18;23.42;;;18.05;;
24663;SDS011;12791;50.992;13.788;2022-08-19T04:33:46;20.33;;;18.42;;
24663;SDS011;12791;50.992;13.788;2022-08-19T04:36:15;16.58;;;15.13;;
24663;SDS011;12791;50.992;13.788;2022-08-19T04:38:45;19.60;;;18.00;;
24663;SDS011;12791;50.992;13.788;2022-08-19T04:41:12;18.55;;;16.88;;
24663;SDS011;12791;50.992;13.788;2022-08-19T04:43:56;18.05;;;16.55;;
24663;SDS011;12791;50.992;13.788;2022-08-19T04:46:24;18.48;;;16.80;;
24663;SDS011;12791;50.992;13.788;2022-08-19T04:48:51;22.30;;;20.13;;
24663;SDS011;12791;50.992;13.788;2022-08-19T04:51:18;20.73;;;18.83;;
24663;SDS011;12791;50.992;13.788;2022-08-19T04:53:45;19.90;;;18.05;;
24663;SDS011;12791;50.992;13.788;2022-08-19T04:56:13;16.85;;;15.38;;
24663;SDS011;12791;50.992;13.788;2022-08-19T04:58:42;19.65;;;17.83;;
24663;SDS011;12791;50.992;13.788;2022-08-19T05:01:11;17.35;;;15.73;;
24663;SDS011;12791;50.992;13.788;2022-08-19T05:03:40;17.65;;;16.02;;
24663;SDS011;12791;50.992;13.788;2022-08-19T05:06:07;18.95;;;17.35;;
24663;SDS011;12791;50.992;13.788;2022-08-19T05:08:36;17.17;;;15.75;;
24663;SDS011;12791;50.992;13.788;2022-08-19T05:11:07;17.77;;;16.17;;
24663;SDS011;12791;50.992;13.788;2022-08-19T05:13:36;19.55;;;17.70;;
24663;SDS011;12791;50.992;13.788;2022-08-19T05:16:03;19.17;;;17.48;;
24663;SDS011;12791;50.992;13.788;2022-08-19T05:18:30;20.55;;;18.67;;
24663;SDS011;12791;50.992;13.788;2022-08-19T05:21:27;19.33;;;17.52;;
24663;SDS011;12791;50.992;13.788;2022-08-19T05:24:12;20.80;;;18.90;;
24663;SDS011;12791;50.992;13.788;2022-08-19T05:26:40;20.17;;;18.27;;
24663;SDS011;12791;50.992;13.788;2022-08-19T05:29:08;20.25;;;18.55;;
24663;SDS011;12791;50.992;13.788;2022-08-19T05:31:35;18.90;;;17.02;;
24663;SDS011;12791;50.992;13.788;2022-08-19T05:34:04;18.55;;;16.85;;
24663;SDS011;12791;50.992;13.788;2022-08-19T05:36:34;19.73;;;17.73;;
24663;SDS011;12791;50.992;13.788;2022-08-19T05:39:05;20.75;;;18.85;;
24663;SDS011;12791;50.992;13.788;2022-08-19T05:41:33;19.02;;;17.33;;
24663;SDS011;12791;50.992;13.788;2022-08-19T05:44:00;23.20;;;21.13;;
24663;SDS011;12791;50.992;13.788;2022-08-19T05:46:30;24.23;;;21.92;;
24663;SDS011;12791;50.992;13.788;2022-08-19T05:48:58;25.90;;;23.42;;
24663;SDS011;12791;50.992;13.788;2022-08-19T05:51:24;20.58;;;18.58;;
24663;SDS011;12791;50.992;13.788;2022-08-19T05:53:52;19.30;;;17.40;;
24663;SDS011;12791;50.992;13.788;2022-08-19T05:56:19;19.63;;;17.73;;
24663;SDS011;12791;50.992;13.788;2022-08-19T05:58:45;22.05;;;20.00;;
24663;SDS011;12791;50.992;13.788;2022-08-19T06:01:13;22.98;;;20.75;;
24663;SDS011;12791;50.992;13.788;2022-08-19T06:03:42;20.67;;;18.77;;
24663;SDS011;12791;50.992;13.788;2022-08-19T06:06:09;22.17;;;19.90;;
24663;SDS011;12791;50.992;13.788;2022-08-19T06:08:38;23.20;;;21.05;;
24663;SDS011;12791;50.992;13.788;2022-08-19T06:11:13;21.30;;;19.30;;
24663;SDS011;12791;50.992;13.788;2022-08-19T06:13:42;17.80;;;16.10;;
24663;SDS011;12791;50.992;13.788;2022-08-19T06:16:12;19.02;;;17.42;;
24663;SDS011;12791;50.992;13.788;2022-08-19T06:18:45;17.95;;;16.27;;
24663;SDS011;12791;50.992;13.788;2022-08-19T06:21:13;20.70;;;18.23;;
24663;SDS011;12791;50.992;13.788;2022-08-19T06:23:39;15.40;;;14.00;;
24663;SDS011;12791;50.992;13.788;2022-08-19T06:26:07;16.35;;;14.75;;
24663;SDS011;12791;50.992;13.788;2022-08-19T06:28:39;16.55;;;15.10;;
24663;SDS011;12791;50.992;13.788;2022-08-19T06:31:07;16.00;;;14.45;;
24663;SDS011;12791;50.992;13.788;2022-08-19T06:33:35;15.07;;;13.77;;
24663;SDS011;12791;50.992;13.788;2022-08-19T06:36:02;14.20;;;13.00;;
24663;SDS011;12791;50.992;13.788;2022-08-19T06:38:29;16.00;;;14.60;;
24663;SDS011;12791;50.992;13.788;2022-08-19T06:40:59;13.73;;;12.63;;
24663;SDS011;12791;50.992;13.788;2022-08-19T06:43:27;14.18;;;12.98;;
24663;SDS011;12791;50.992;13.788;2022-08-19T06:45:55;14.15;;;13.05;;
24663;SDS011;12791;50.992;13.788;2022-08-19T06:48:21;13.70;;;12.55;;
24663;SDS011;12791;50.992;13.788;2022-08-19T06:50:48;13.50;;;12.30;;
24663;SDS011;12791;50.992;13.788;2022-08-19T06:53:16;13.07;;;11.98;;
24663;SDS011;12791;50.992;13.788;2022-08-19T06:55:44;11.98;;;10.82;;
24663;SDS011;12791;50.992;13.788;2022-08-19T06:58:10;11.90;;;10.98;;
24663;SDS011;12791;50.992;13.788;2022-08-19T07:00:37;12.95;;;11.77;;
24663;SDS011;12791;50.992;13.788;2022-08-19T07:03:05;11.55;;;10.57;;
24663;SDS011;12791;50.992;13.788;2022-08-19T07:05:32;12.07;;;11.07;;
24663;SDS011;12791;50.992;13.788;2022-08-19T07:07:58;12.52;;;11.48;;
24663;SDS011;12791;50.992;13.788;2022-08-19T07:10:25;12.82;;;11.52;;
24663;SDS011;12791;50.992;13.788;2022-08-19T07:12:52;13.07;;;12.02;;
24663;SDS011;12791;50.992;13.788;2022-08-19T07:15:18;11.27;;;10.48;;
24663;SDS011;12791;50.992;13.788;2022-08-19T07:17:46;12.90;;;11.73;;
24663;SDS011;12791;50.992;13.788;2022-08-19T07:20:14;12.50;;;11.45;;
24663;SDS011;12791;50.992;13.788;2022-08-19T07:22:41;13.27;;;12.07;;
24663;SDS011;12791;50.992;13.788;2022-08-19T07:25:08;12.55;;;11.48;;
24663;SDS011;12791;50.992;13.788;2022-08-19T07:27:36;12.25;;;11.07;;
24663;SDS011;12791;50.992;13.788;2022-08-19T07:30:03;13.00;;;11.90;;
24663;SDS011;12791;50.992;13.788;2022-08-19T07:32:30;13.90;;;12.70;;
24663;SDS011;12791;50.992;13.788;2022-08-19T07:34:57;11.95;;;10.95;;
24663;SDS011;12791;50.992;13.788;2022-08-19T07:37:26;14.10;;;12.93;;
24663;SDS011;12791;50.992;13.788;2022-08-19T07:39:53;12.73;;;11.68;;
24663;SDS011;12791;50.992;13.788;2022-08-19T07:42:20;13.05;;;12.02;;
24663;SDS011;12791;50.992;13.788;2022-08-19T07:44:46;13.00;;;11.90;;
24663;SDS011;12791;50.992;13.788;2022-08-19T07:47:13;14.07;;;12.70;;
24663;SDS011;12791;50.992;13.788;2022-08-19T07:49:42;13.93;;;12.75;;
24663;SDS011;12791;50.992;13.788;2022-08-19T07:52:09;14.43;;;13.02;;
24663;SDS011;12791;50.992;13.788;2022-08-19T07:54:37;14.43;;;13.00;;
24663;SDS011;12791;50.992;13.788;2022-08-19T07:57:05;13.80;;;12.45;;
24663;SDS011;12791;50.992;13.788;2022-08-19T07:59:33;13.27;;;12.18;;
24663;SDS011;12791;50.992;13.788;2022-08-19T08:02:00;13.07;;;12.07;;
24663;SDS011;12791;50.992;13.788;2022-08-19T08:04:27;13.70;;;12.60;;
24663;SDS011;12791;50.992;13.788;2022-08-19T08:07:12;14.93;;;13.65;;
24663;SDS011;12791;50.992;13.788;2022-08-19T08:09:58;15.93;;;14.40;;
24663;SDS011;12791;50.992;13.788;2022-08-19T08:12:26;15.00;;;13.70;;
24663;SDS011;12791;50.992;13.788;2022-08-19T08:14:56;13.23;;;12.13;;
24663;SDS011;12791;50.992;13.788;2022-08-19T08:17:27;15.30;;;13.80;;
24663;SDS011;12791;50.992;13.788;2022-08-19T08:19:54;14.90;;;13.60;;
24663;SDS011;12791;50.992;13.788;2022-08-19T08:22:22;15.07;;;13.65;;
24663;SDS011;12791;50.992;13.788;2022-08-19T08:25:05;15.57;;;14.20;;
24663;SDS011;12791;50.992;13.788;2022-08-19T08:27:35;14.25;;;13.05;;
24663;SDS011;12791;50.992;13.788;2022-08-19T08:30:04;14.80;;;13.50;;
24663;SDS011;12791;50.992;13.788;2022-08-19T08:32:34;14.95;;;13.65;;
24663;SDS011;12791;50.992;13.788;2022-08-19T08:35:00;14.60;;;13.25;;
24663;SDS011;12791;50.992;13.788;2022-08-19T08:37:27;14.70;;;13.30;;
24663;SDS011;12791;50.992;13.788;2022-08-19T08:39:55;15.13;;;13.77;;
24663;SDS011;12791;50.992;13.788;2022-08-19T08:42:24;13.32;;;12.23;;
24663;SDS011;12791;50.992;13.788;2022-08-19T08:44:57;15.73;;;14.38;;
24663;SDS011;12791;50.992;13.788;2022-08-19T08:47:28;17.48;;;15.88;;
24663;SDS011;12791;50.992;13.788;2022-08-19T08:50:02;17.02;;;15.43;;
24663;SDS011;12791;50.992;13.788;2022-08-19T08:52:33;15.30;;;14.00;;
24663;SDS011;12791;50.992;13.788;2022-08-19T08:55:03;18.15;;;16.45;;
24663;SDS011;12791;50.992;13.788;2022-08-19T08:57:36;15.20;;;13.93;;
24663;SDS011;12791;50.992;13.788;2022-08-19T09:00:06;14.23;;;12.93;;
24663;SDS011;12791;50.992;13.788;2022-08-19T09:02:35;17.83;;;16.35;;
24663;SDS011;12791;50.992;13.788;2022-08-19T09:05:02;13.80;;;12.60;;
24663;SDS011;12791;50.992;13.788;2022-08-19T09:07:33;15.68;;;14.38;;
24663;SDS011;12791;50.992;13.788;2022-08-19T09:10:09;15.43;;;14.13;;
24663;SDS011;12791;50.992;13.788;2022-08-19T09:12:44;15.52;;;14.02;;
24663;SDS011;12791;50.992;13.788;2022-08-19T09:15:21;14.18;;;12.80;;
24663;SDS011;12791;50.992;13.788;2022-08-19T09:17:53;13.35;;;12.05;;
24663;SDS011;12791;50.992;13.788;2022-08-19T09:20:20;13.55;;;12.38;;
24663;SDS011;12791;50.992;13.788;2022-08-19T09:22:49;12.35;;;11.35;;
24663;SDS011;12791;50.992;13.788;2022-08-19T09:25:16;14.82;;;13.63;;
24663;SDS011;12791;50.992;13.788;2022-08-19T09:27:48;13.82;;;12.65;;
24663;SDS011;12791;50.992;13.788;2022-08-19T09:30:17;14.95;;;13.55;;
24663;SDS011;12791;50.992;13.788;2022-08-19T09:32:46;13.07;;;11.98;;
24663;SDS011;12791;50.992;13.788;2022-08-19T09:35:13;15.00;;;13.60;;
24663;SDS011;12791;50.992;13.788;2022-08-19T09:37:41;13.38;;;12.18;;
24663;SDS011;12791;50.992;13.788;2022-08-19T09:40:08;13.07;;;11.88;;
24663;SDS011;12791;50.992;13.788;2022-08-19T09:42:36;13.05;;;11.95;;
24663;SDS011;12791;50.992;13.788;2022-08-19T09:45:05;13.93;;;12.73;;
24663;SDS011;12791;50.992;13.788;2022-08-19T09:47:32;13.10;;;11.90;;
24663;SDS011;12791;50.992;13.788;2022-08-19T09:50:01;12.93;;;11.73;;
24663;SDS011;12791;50.992;13.788;2022-08-19T09:52:27;12.15;;;11.15;;
24663;SDS011;12791;50.992;13.788;2022-08-19T09:54:54;13.38;;;12.18;;
24663;SDS011;12791;50.992;13.788;2022-08-19T09:57:20;12.45;;;11.52;;
24663;SDS011;12791;50.992;13.788;2022-08-19T09:59:47;14.50;;;13.18;;
24663;SDS011;12791;50.992;13.788;2022-08-19T10:02:15;15.20;;;14.00;;
24663;SDS011;12791;50.992;13.788;2022-08-19T10:04:43;14.63;;;13.43;;
24663;SDS011;12791;50.992;13.788;2022-08-19T10:07:29;13.27;;;12.18;;
24663;SDS011;12791;50.992;13.788;2022-08-19T10:09:55;13.98;;;12.77;;
24663;SDS011;12791;50.992;13.788;2022-08-19T10:12:22;15.25;;;13.90;;
24663;SDS011;12791;50.992;13.788;2022-08-19T10:14:49;13.60;;;12.50;;
24663;SDS011;12791;50.992;13.788;2022-08-19T10:17:17;13.80;;;12.60;;
24663;SDS011;12791;50.992;13.788;2022-08-19T10:19:44;12.10;;;11.07;;
24663;SDS011;12791;50.992;13.788;2022-08-19T10:22:11;12.00;;;10.95;;
24663;SDS011;12791;50.992;13.788;2022-08-19T10:24:38;11.05;;;10.18;;
24663;SDS011;12791;50.992;13.788;2022-08-19T10:27:06;11.65;;;10.65;;
24663;SDS011;12791;50.992;13.788;2022-08-19T10:29:32;11.43;;;10.52;;
24663;SDS011;12791;50.992;13.788;2022-08-19T10:32:00;10.13;;;9.30;;
24663;SDS011;12791;50.992;13.788;2022-08-19T10:34:30;9.93;;;9.07;;
24663;SDS011;12791;50.992;13.788;2022-08-19T10:36:58;10.02;;;9.13;;
24663;SDS011;12791;50.992;13.788;2022-08-19T10:39:26;12.23;;;11.15;;
24663;SDS011;12791;50.992;13.788;2022-08-19T10:41:53;9.55;;;8.85;;
24663;SDS011;12791;50.992;13.788;2022-08-19T10:44:21;9.45;;;8.75;;
24663;SDS011;12791;50.992;13.788;2022-08-19T10:46:48;10.23;;;9.43;;
24663;SDS011;12791;50.992;13.788;2022-08-19T10:49:16;9.70;;;9.00;;
24663;SDS011;12791;50.992;13.788;2022-08-19T10:51:45;8.02;;;7.53;;
24663;SDS011;12791;50.992;13.788;2022-08-19T10:54:29;8.20;;;7.60;;
24663;SDS011;12791;50.992;13.788;2022-08-19T10:57:10;8.32;;;7.68;;
24663;SDS011;12791;50.992;13.788;2022-08-19T10:59:36;8.13;;;7.47;;
24663;SDS011;12791;50.992;13.788;2022-08-19T11:02:04;7.88;;;7.28;;
24663;SDS011;12791;50.992;13.788;2022-08-19T11:04:34;7.95;;;7.35;;
24663;SDS011;12791;50.992;13.788;2022-08-19T11:07:02;7.30;;;6.80;;
24663;SDS011;12791;50.992;13.788;2022-08-19T11:09:30;7.22;;;6.72;;
24663;SDS011;12791;50.992;13.788;2022-08-19T11:11:57;7.18;;;6.57;;
24663;SDS011;12791;50.992;13.788;2022-08-19T11:14:24;6.25;;;5.88;;
24663;SDS011;12791;50.992;13.788;2022-08-19T11:16:51;6.55;;;6.05;;
24663;SDS011;12791;50.992;13.788;2022-08-19T11:19:20;5.95;;;5.55;;
24663;SDS011;12791;50.992;13.788;2022-08-19T11:21:48;5.68;;;5.38;;
24663;SDS011;12791;50.992;13.788;2022-08-19T11:24:18;6.15;;;5.75;;
24663;SDS011;12791;50.992;13.788;2022-08-19T11:26:46;5.35;;;5.05;;
24663;SDS011;12791;50.992;13.788;2022-08-19T11:29:15;4.95;;;4.72;;
24663;SDS011;12791;50.992;13.788;2022-08-19T11:31:44;5.18;;;4.82;;
24663;SDS011;12791;50.992;13.788;2022-08-19T11:34:13;4.18;;;3.97;;
24663;SDS011;12791;50.992;13.788;2022-08-19T11:36:43;3.65;;;3.45;;
24663;SDS011;12791;50.992;13.788;2022-08-19T11:39:14;5.03;;;4.65;;
24663;SDS011;12791;50.992;13.788;2022-08-19T11:41:43;4.43;;;4.13;;
24663;SDS011;12791;50.992;13.788;2022-08-19T11:44:10;4.28;;;4.07;;
24663;SDS011;12791;50.992;13.788;2022-08-19T11:46:39;4.68;;;4.38;;
24663;SDS011;12791;50.992;13.788;2022-08-19T11:49:10;4.55;;;4.15;;
24663;SDS011;12791;50.992;13.788;2022-08-19T11:51:37;4.30;;;4.00;;
24663;SDS011;12791;50.992;13.788;2022-08-19T11:54:05;4.15;;;3.85;;
24663;SDS011;12791;50.992;13.788;2022-08-19T11:56:32;3.97;;;3.78;;
24663;SDS011;12791;50.992;13.788;2022-08-19T11:59:00;5.88;;;5.57;;
24663;SDS011;12791;50.992;13.788;2022-08-19T12:01:27;8.70;;;7.90;;
24663;SDS011;12791;50.992;13.788;2022-08-19T12:03:55;8.73;;;8.07;;
24663;SDS011;12791;50.992;13.788;2022-08-19T12:06:23;8.38;;;7.78;;
24663;SDS011;12791;50.992;13.788;2022-08-19T12:08:53;9.43;;;8.82;;
24663;SDS011;12791;50.992;13.788;2022-08-19T12:11:20;11.60;;;10.75;;
24663;SDS011;12791;50.992;13.788;2022-08-19T12:13:46;10.93;;;10.13;;
24663;SDS011;12791;50.992;13.788;2022-08-19T12:16:15;10.57;;;9.88;;
24663;SDS011;12791;50.992;13.788;2022-08-19T12:18:45;13.95;;;12.63;;
24663;SDS011;12791;50.992;13.788;2022-08-19T12:21:12;13.48;;;12.38;;
24663;SDS011;12791;50.992;13.788;2022-08-19T12:23:39;13.57;;;12.48;;
24663;SDS011;12791;50.992;13.788;2022-08-19T12:26:06;12.52;;;11.52;;
24663;SDS011;12791;50.992;13.788;2022-08-19T12:28:35;12.63;;;11.63;;
24663;SDS011;12791;50.992;13.788;2022-08-19T12:31:02;11.68;;;10.68;;
24663;SDS011;12791;50.992;13.788;2022-08-19T12:33:30;11.45;;;10.55;;
24663;SDS011;12791;50.992;13.788;2022-08-19T12:36:00;16.30;;;14.88;;
24663;SDS011;12791;50.992;13.788;2022-08-19T12:38:28;13.18;;;12.18;;
24663;SDS011;12791;50.992;13.788;2022-08-19T12:40:55;14.10;;;12.90;;
24663;SDS011;12791;50.992;13.788;2022-08-19T12:43:22;13.60;;;12.40;;
24663;SDS011;12791;50.992;13.788;2022-08-19T12:45:49;14.95;;;13.27;;
24663;SDS011;12791;50.992;13.788;2022-08-19T12:48:16;15.48;;;14.18;;
24663;SDS011;12791;50.992;13.788;2022-08-19T12:50:44;16.90;;;15.07;;
24663;SDS011;12791;50.992;13.788;2022-08-19T12:53:11;17.80;;;16.00;;
24663;SDS011;12791;50.992;13.788;2022-08-19T12:55:38;16.50;;;14.95;;
24663;SDS011;12791;50.992;13.788;2022-08-19T12:58:05;16.45;;;14.80;;
24663;SDS011;12791;50.992;13.788;2022-08-19T13:00:32;17.13;;;15.63;;
24663;SDS011;12791;50.992;13.788;2022-08-19T13:02:59;17.45;;;15.70;;
24663;SDS011;12791;50.992;13.788;2022-08-19T13:05:27;19.35;;;17.52;;
24663;SDS011;12791;50.992;13.788;2022-08-19T13:07:57;17.67;;;16.02;;
24663;SDS011;12791;50.992;13.788;2022-08-19T13:10:26;19.73;;;17.83;;
24663;SDS011;12791;50.992;13.788;2022-08-19T13:12:55;19.25;;;17.52;;
24663;SDS011;12791;50.992;13.788;2022-08-19T13:15:24;21.35;;;19.27;;
24663;SDS011;12791;50.992;13.788;2022-08-19T13:17:56;20.00;;;18.20;;
24663;SDS011;12791;50.992;13.788;2022-08-19T13:20:23;18.00;;;16.10;;
24663;SDS011;12791;50.992;13.788;2022-08-19T13:22:50;21.33;;;19.33;;
24663;SDS011;12791;50.992;13.788;2022-08-19T13:25:18;21.23;;;19.13;;
24663;SDS011;12791;50.992;13.788;2022-08-19T13:27:46;19.58;;;17.88;;
24663;SDS011;12791;50.992;13.788;2022-08-19T13:30:15;18.73;;;17.08;;
24663;SDS011;12791;50.992;13.788;2022-08-19T13:33:12;21.35;;;18.83;;
24663;SDS011;12791;50.992;13.788;2022-08-19T13:35:40;22.58;;;19.92;;
24663;SDS011;12791;50.992;13.788;2022-08-19T13:38:08;21.58;;;19.58;;
24663;SDS011;12791;50.992;13.788;2022-08-19T13:40:37;21.17;;;19.20;;
24663;SDS011;12791;50.992;13.788;2022-08-19T13:43:04;25.02;;;22.63;;
24663;SDS011;12791;50.992;13.788;2022-08-19T13:45:32;19.08;;;17.38;;
24663;SDS011;12791;50.992;13.788;2022-08-19T13:47:59;23.05;;;20.73;;
24663;SDS011;12791;50.992;13.788;2022-08-19T13:50:31;21.45;;;19.00;;
24663;SDS011;12791;50.992;13.788;2022-08-19T13:52:59;19.85;;;17.88;;
24663;SDS011;12791;50.992;13.788;2022-08-19T13:55:26;18.90;;;17.08;;
24663;SDS011;12791;50.992;13.788;2022-08-19T13:57:55;18.48;;;16.85;;
24663;SDS011;12791;50.992;13.788;2022-08-19T14:00:24;18.02;;;16.42;;
24663;SDS011;12791;50.992;13.788;2022-08-19T14:02:53;18.45;;;16.75;;
24663;SDS011;12791;50.992;13.788;2022-08-19T14:05:21;21.23;;;19.38;;
24663;SDS011;12791;50.992;13.788;2022-08-19T14:07:48;23.02;;;20.90;;
24663;SDS011;12791;50.992;13.788;2022-08-19T14:10:15;23.55;;;21.15;;
24663;SDS011;12791;50.992;13.788;2022-08-19T14:12:44;23.05;;;20.83;;
24663;SDS011;12791;50.992;13.788;2022-08-19T14:15:12;25.42;;;23.00;;
24663;SDS011;12791;50.992;13.788;2022-08-19T14:17:41;28.63;;;25.70;;
24663;SDS011;12791;50.992;13.788;2022-08-19T14:20:09;26.80;;;24.10;;